createdAt,value
2017-11-26T00:00:46.308Z,10.17
2017-11-26T00:03:17.858Z,11.20
2017-11-26T00:05:47.057Z,10.00
2017-11-26T00:08:16.153Z,10.47
2017-11-26T00:10:45.152Z,10.57
2017-11-26T00:13:16.102Z,10.30
2017-11-26T00:15:45.853Z,10.07
2017-11-26T00:18:16.097Z,10.03
2017-11-26T00:20:47.991Z,9.67
2017-11-26T00:23:24.209Z,10.10
2017-11-26T00:25:55.089Z,8.40
2017-11-26T00:28:26.691Z,10.70
2017-11-26T00:30:57.803Z,9.73
2017-11-26T00:33:26.894Z,10.40
2017-11-26T00:36:01.604Z,10.27
2017-11-26T00:38:31.875Z,11.43
2017-11-26T00:41:00.925Z,9.57
2017-11-26T00:43:31.963Z,10.00
2017-11-26T00:46:01.984Z,10.20
2017-11-26T00:48:32.609Z,10.30
2017-11-26T00:51:02.530Z,10.80
2017-11-26T00:53:31.456Z,9.87
2017-11-26T00:56:01.578Z,11.67
2017-11-26T00:58:30.701Z,10.50
2017-11-26T01:01:00.554Z,11.20
2017-11-26T01:03:30.293Z,9.20
2017-11-26T01:06:00.284Z,10.83
2017-11-26T01:08:31.117Z,10.00
2017-11-26T01:11:05.406Z,10.47
2017-11-26T01:13:35.259Z,12.27
2017-11-26T01:16:05.311Z,11.37
2017-11-26T01:21:09.009Z,11.00
2017-11-26T01:23:42.162Z,11.27
2017-11-26T01:26:11.440Z,11.57
2017-11-26T01:28:41.711Z,12.27
2017-11-26T01:31:11.727Z,11.20
2017-11-26T01:33:42.845Z,11.67
2017-11-26T01:36:11.961Z,10.47
2017-11-26T01:38:40.956Z,12.30
2017-11-26T01:41:11.798Z,12.83
2017-11-26T01:43:40.928Z,12.63
2017-11-26T01:46:11.514Z,11.97
2017-11-26T01:51:18.005Z,12.13
2017-11-26T01:53:47.921Z,12.00
2017-11-26T01:58:55.963Z,12.70
2017-11-26T02:01:25.034Z,13.70
2017-11-26T02:04:01.979Z,12.60
2017-11-26T02:06:31.118Z,12.83
2017-11-26T02:09:00.173Z,14.17
2017-11-26T02:11:31.048Z,14.50
2017-11-26T02:14:01.316Z,15.10
2017-11-26T02:16:32.513Z,14.07
2017-11-26T02:19:02.573Z,13.50
2017-11-26T02:21:32.616Z,12.67
2017-11-26T02:24:01.821Z,14.70
2017-11-26T02:26:30.735Z,14.13
2017-11-26T02:28:59.691Z,17.90
2017-11-26T02:34:26.898Z,21.40
2017-11-26T02:36:56.917Z,20.63
2017-11-26T02:39:26.735Z,19.57
2017-11-26T02:44:30.635Z,23.43
2017-11-26T02:46:59.608Z,21.60
2017-11-26T02:49:30.460Z,19.30
2017-11-26T02:51:59.687Z,22.37
2017-11-26T02:54:28.585Z,22.03
2017-11-26T02:56:57.589Z,20.97
2017-11-26T02:59:28.286Z,19.40
2017-11-26T03:01:57.197Z,19.30
2017-11-26T03:04:26.142Z,18.67
2017-11-26T03:06:55.080Z,19.60
2017-11-26T03:09:24.025Z,18.47
2017-11-26T03:11:52.942Z,19.30
2017-11-26T03:14:21.922Z,17.43
2017-11-26T03:16:50.867Z,20.70
2017-11-26T03:19:19.730Z,20.67
2017-11-26T03:21:48.630Z,19.17
2017-11-26T03:24:18.405Z,20.10
2017-11-26T03:26:47.309Z,21.47
2017-11-26T03:29:17.269Z,21.40
2017-11-26T03:31:46.139Z,19.97
2017-11-26T03:34:15.019Z,19.70
2017-11-26T03:39:19.442Z,22.13
2017-11-26T03:41:49.719Z,22.57
2017-11-26T03:44:18.997Z,20.57
2017-11-26T03:49:26.492Z,21.50
2017-11-26T03:51:55.503Z,21.60
2017-11-26T03:54:25.622Z,23.17
2017-11-26T03:56:56.247Z,21.17
2017-11-26T03:59:25.433Z,21.07
2017-11-26T04:01:54.446Z,21.43
2017-11-26T04:04:25.178Z,21.00
2017-11-26T04:06:54.158Z,18.57
2017-11-26T04:09:24.146Z,19.47
2017-11-26T04:11:54.951Z,18.47
2017-11-26T04:14:26.863Z,20.33
2017-11-26T04:16:55.839Z,23.83
2017-11-26T04:19:24.741Z,20.73
2017-11-26T04:21:54.585Z,20.27
2017-11-26T04:24:24.790Z,20.80
2017-11-26T04:26:54.350Z,20.40
2017-11-26T04:29:23.409Z,22.50
2017-11-26T04:31:52.453Z,21.60
2017-11-26T04:34:26.864Z,23.43
2017-11-26T04:36:56.070Z,24.47
2017-11-26T04:39:25.159Z,24.27
2017-11-26T04:41:54.357Z,24.47
2017-11-26T04:44:27.099Z,25.07
2017-11-26T04:46:56.909Z,26.00
2017-11-26T04:49:26.041Z,21.70
2017-11-26T04:51:56.029Z,26.47
2017-11-26T04:54:25.529Z,24.80
2017-11-26T04:56:55.384Z,25.03
2017-11-26T04:59:25.201Z,25.50
2017-11-26T05:01:54.294Z,27.00
2017-11-26T05:04:26.580Z,26.60
2017-11-26T05:06:56.435Z,28.63
2017-11-26T05:09:25.475Z,27.50
2017-11-26T05:11:54.576Z,21.67
2017-11-26T05:14:24.653Z,22.67
2017-11-26T05:16:54.515Z,26.20
2017-11-26T05:19:25.368Z,25.30
2017-11-26T05:21:56.548Z,22.47
2017-11-26T05:24:25.739Z,22.83
2017-11-26T05:26:55.967Z,22.60
2017-11-26T05:29:25.210Z,21.00
2017-11-26T05:31:56.200Z,20.30
2017-11-26T05:34:28.204Z,21.87
2017-11-26T05:36:57.161Z,22.07
2017-11-26T05:39:27.283Z,19.60
2017-11-26T05:42:06.513Z,24.63
2017-11-26T05:44:36.426Z,27.60
2017-11-26T05:47:10.745Z,30.67
2017-11-26T05:49:39.838Z,35.20
2017-11-26T05:52:08.835Z,29.63
2017-11-26T05:54:39.567Z,30.47
2017-11-26T05:57:09.587Z,30.00
2017-11-26T05:59:38.682Z,25.90
2017-11-26T06:02:07.779Z,26.90
2017-11-26T06:04:37.839Z,27.30
2017-11-26T06:07:07.690Z,25.43
2017-11-26T06:09:37.741Z,21.33
2017-11-26T06:12:08.228Z,23.03
2017-11-26T06:14:37.461Z,21.50
2017-11-26T06:17:06.663Z,20.03
2017-11-26T06:19:35.880Z,20.67
2017-11-26T06:22:06.039Z,19.67
2017-11-26T06:24:39.227Z,20.27
2017-11-26T06:27:08.268Z,20.83
2017-11-26T06:29:39.025Z,19.20
2017-11-26T06:32:13.703Z,21.67
2017-11-26T06:34:43.307Z,22.50
2017-11-26T06:37:16.297Z,20.67
2017-11-26T06:39:46.707Z,18.87
2017-11-26T06:42:15.806Z,20.10
2017-11-26T06:44:46.895Z,22.33
2017-11-26T06:47:16.044Z,20.90
2017-11-26T06:49:45.141Z,20.47
2017-11-26T06:52:16.049Z,21.73
2017-11-26T06:54:46.409Z,20.27
2017-11-26T06:57:17.841Z,21.23
2017-11-26T06:59:46.750Z,20.80
2017-11-26T07:02:16.795Z,22.63
2017-11-26T07:04:45.771Z,19.13
2017-11-26T07:07:14.818Z,22.50
2017-11-26T07:09:43.948Z,25.67
2017-11-26T07:12:14.904Z,22.53
2017-11-26T07:14:44.702Z,25.60
2017-11-26T07:17:13.900Z,25.50
2017-11-26T07:19:43.304Z,25.37
2017-11-26T07:22:13.936Z,24.87
2017-11-26T07:24:44.418Z,24.83
2017-11-26T07:27:14.227Z,23.60
2017-11-26T07:29:44.538Z,26.03
2017-11-26T07:32:14.617Z,25.47
2017-11-26T07:34:43.598Z,23.23
2017-11-26T07:37:12.510Z,21.70
2017-11-26T07:39:42.264Z,23.17
2017-11-26T07:42:11.173Z,21.27
2017-11-26T07:44:40.160Z,22.73
2017-11-26T07:47:09.046Z,22.43
2017-11-26T07:49:37.916Z,22.60
2017-11-26T07:52:06.759Z,18.83
2017-11-26T07:54:35.754Z,21.40
2017-11-26T07:57:04.650Z,20.60
2017-11-26T07:59:33.788Z,20.83
2017-11-26T08:02:03.632Z,21.90
2017-11-26T08:04:32.455Z,22.10
2017-11-26T08:07:01.450Z,21.50
2017-11-26T08:09:34.425Z,21.27
2017-11-26T08:12:03.727Z,22.20
2017-11-26T08:14:32.824Z,19.67
2017-11-26T08:17:02.907Z,23.67
2017-11-26T08:19:31.899Z,23.77
2017-11-26T08:22:00.778Z,22.17
2017-11-26T08:24:29.868Z,20.93
2017-11-26T08:26:58.692Z,20.40
2017-11-26T08:29:32.505Z,22.83
2017-11-26T08:32:07.494Z,21.10
2017-11-26T08:34:41.416Z,23.33
2017-11-26T08:37:11.315Z,19.27
2017-11-26T08:39:40.293Z,22.43
2017-11-26T08:42:09.255Z,23.77
2017-11-26T08:44:38.255Z,21.87
2017-11-26T08:47:07.236Z,22.60
2017-11-26T08:49:39.218Z,23.43
2017-11-26T08:52:08.147Z,22.00
2017-11-26T08:54:37.251Z,22.70
2017-11-26T08:59:40.114Z,22.37
2017-11-26T09:02:09.913Z,21.70
2017-11-26T09:07:15.019Z,22.67
2017-11-26T09:09:44.928Z,21.57
2017-11-26T09:12:14.028Z,21.07
2017-11-26T09:14:45.380Z,22.57
2017-11-26T09:17:14.684Z,22.90
2017-11-26T09:19:43.865Z,20.93
2017-11-26T09:22:13.084Z,20.80
2017-11-26T09:24:42.270Z,20.17
2017-11-26T09:27:11.956Z,21.30
2017-11-26T09:29:41.233Z,22.63
2017-11-26T09:32:10.277Z,19.87
2017-11-26T09:34:39.509Z,20.00
2017-11-26T09:37:11.442Z,21.80
2017-11-26T09:39:40.787Z,22.70
2017-11-26T09:42:10.717Z,24.30
2017-11-26T09:44:39.696Z,25.07
2017-11-26T09:47:11.881Z,24.07
2017-11-26T09:49:43.558Z,24.33
2017-11-26T09:52:13.230Z,25.23
2017-11-26T09:54:43.614Z,25.13
2017-11-26T09:57:14.051Z,25.37
2017-11-26T09:59:43.195Z,24.40
2017-11-26T10:02:12.891Z,23.07
2017-11-26T10:04:43.056Z,24.97
2017-11-26T10:07:12.831Z,24.90
2017-11-26T10:09:42.020Z,22.83
2017-11-26T10:12:12.105Z,22.70
2017-11-26T10:14:41.408Z,22.10
2017-11-26T10:17:12.231Z,23.70
2017-11-26T10:19:41.442Z,24.00
2017-11-26T10:22:11.360Z,24.50
2017-11-26T10:24:42.255Z,24.67
2017-11-26T10:27:13.943Z,24.00
2017-11-26T10:29:44.829Z,24.27
2017-11-26T10:32:15.822Z,21.43
2017-11-26T10:34:44.863Z,23.10
2017-11-26T10:37:14.626Z,23.83
2017-11-26T10:39:46.701Z,22.13
2017-11-26T10:42:15.922Z,22.23
2017-11-26T10:44:45.067Z,22.10
2017-11-26T10:47:14.402Z,22.77
2017-11-26T10:49:44.144Z,22.17
2017-11-26T10:52:14.324Z,22.00
2017-11-26T10:54:45.341Z,22.07
2017-11-26T10:57:15.124Z,21.90
2017-11-26T10:59:45.361Z,23.40
2017-11-26T11:02:17.886Z,22.10
2017-11-26T11:04:47.988Z,21.73
2017-11-26T11:07:17.343Z,20.03
2017-11-26T11:09:47.630Z,21.10
2017-11-26T11:12:17.791Z,21.47
2017-11-26T11:14:47.044Z,20.00
2017-11-26T11:17:17.296Z,20.37
2017-11-26T11:19:46.361Z,21.63
2017-11-26T11:22:16.387Z,23.10
2017-11-26T11:24:45.678Z,20.37
2017-11-26T11:27:17.740Z,22.07
2017-11-26T11:29:47.918Z,21.80
2017-11-26T11:32:18.763Z,22.10
2017-11-26T11:34:47.976Z,20.80
2017-11-26T11:37:17.814Z,21.27
2017-11-26T11:39:47.685Z,21.20
2017-11-26T11:42:16.896Z,21.97
2017-11-26T11:47:19.886Z,20.17
2017-11-26T11:49:49.022Z,22.00
2017-11-26T11:52:19.153Z,21.50
2017-11-26T11:54:48.698Z,22.50
2017-11-26T11:57:18.365Z,20.80
2017-11-26T11:59:51.304Z,21.33
2017-11-26T12:02:20.515Z,22.47
2017-11-26T12:04:50.465Z,22.67
2017-11-26T12:07:19.720Z,23.37
2017-11-26T12:09:49.842Z,24.27
2017-11-26T12:12:19.038Z,23.27
2017-11-26T12:14:48.253Z,26.80
2017-11-26T12:17:17.566Z,28.70
2017-11-26T12:19:48.971Z,29.87
2017-11-26T12:22:19.977Z,31.87
2017-11-26T12:24:49.982Z,23.43
2017-11-26T12:27:20.168Z,22.40
2017-11-26T12:29:50.240Z,20.27
2017-11-26T12:32:22.501Z,25.03
2017-11-26T12:34:52.786Z,28.13
2017-11-26T12:37:22.866Z,24.87
2017-11-26T12:39:54.202Z,23.13
2017-11-26T12:42:23.496Z,23.07
2017-11-26T12:44:53.526Z,24.10
2017-11-26T12:49:58.260Z,26.03
2017-11-26T12:52:47.945Z,26.53
2017-11-26T12:55:19.234Z,24.63
2017-11-26T12:57:49.293Z,25.50
2017-11-26T13:00:18.631Z,25.23
2017-11-26T13:02:48.160Z,27.17
2017-11-26T13:07:53.009Z,29.30
2017-11-26T13:10:22.423Z,26.90
2017-11-26T13:12:53.962Z,26.50
2017-11-26T13:15:24.120Z,27.80
2017-11-26T13:17:53.593Z,27.20
2017-11-26T13:20:25.770Z,29.97
2017-11-26T13:25:30.674Z,25.27
2017-11-26T13:28:00.533Z,24.37
2017-11-26T13:30:29.716Z,21.30
2017-11-26T13:33:00.368Z,20.90
2017-11-26T13:35:31.187Z,22.10
2017-11-26T13:38:02.912Z,21.70
2017-11-26T13:40:33.118Z,22.87
2017-11-26T13:43:03.497Z,25.70
2017-11-26T13:45:32.859Z,26.07
2017-11-26T13:48:03.171Z,27.37
2017-11-26T13:50:34.019Z,25.47
2017-11-26T13:53:03.101Z,24.10
2017-11-26T13:55:33.269Z,22.30
2017-11-26T13:58:03.414Z,21.70
2017-11-26T14:00:33.591Z,23.83
2017-11-26T14:03:04.693Z,26.40
2017-11-26T14:05:34.110Z,25.77
2017-11-26T14:08:03.484Z,25.23
2017-11-26T14:10:33.384Z,23.93
2017-11-26T14:13:05.463Z,25.00
2017-11-26T14:15:37.662Z,27.70
2017-11-26T14:18:07.812Z,25.30
2017-11-26T14:20:36.884Z,23.50
2017-11-26T14:23:07.786Z,24.87
2017-11-26T14:25:38.222Z,24.77
2017-11-26T14:28:09.188Z,23.93
2017-11-26T14:30:39.299Z,27.00
2017-11-26T14:33:08.405Z,29.03
2017-11-26T14:35:40.240Z,28.53
2017-11-26T14:38:09.481Z,29.90
2017-11-26T14:40:38.708Z,28.80
2017-11-26T14:43:08.370Z,29.17
2017-11-26T14:45:37.510Z,27.50
2017-11-26T14:48:06.864Z,27.10
2017-11-26T14:50:38.002Z,31.23
2017-11-26T14:53:08.234Z,34.30
2017-11-26T14:55:40.920Z,33.33
2017-11-26T14:58:11.751Z,37.40
2017-11-26T15:00:43.948Z,37.63
2017-11-26T15:03:14.876Z,38.70
2017-11-26T15:05:46.004Z,45.97
2017-11-26T15:08:16.061Z,42.93
2017-11-26T15:10:54.234Z,38.23
2017-11-26T15:13:25.183Z,35.77
2017-11-26T15:15:54.680Z,32.40
2017-11-26T15:18:24.182Z,34.90
2017-11-26T15:20:53.367Z,35.20
2017-11-26T15:25:57.905Z,28.50
2017-11-26T15:28:27.562Z,28.57
2017-11-26T15:30:57.617Z,26.97
2017-11-26T15:33:26.678Z,28.30
2017-11-26T15:35:56.710Z,28.53
2017-11-26T15:38:28.627Z,29.17
2017-11-26T15:40:58.026Z,26.80
2017-11-26T15:43:27.227Z,26.10
2017-11-26T15:45:59.290Z,28.50
2017-11-26T15:48:29.101Z,25.87
2017-11-26T15:50:59.151Z,24.43
2017-11-26T15:53:29.136Z,25.07
2017-11-26T15:56:00.119Z,26.27
2017-11-26T15:58:30.576Z,27.43
2017-11-26T16:00:59.814Z,27.60
2017-11-26T16:03:29.837Z,28.07
2017-11-26T16:06:04.686Z,23.70
2017-11-26T16:08:33.961Z,22.20
2017-11-26T16:11:03.364Z,27.57
2017-11-26T16:13:33.519Z,27.00
2017-11-26T16:16:03.699Z,25.67
2017-11-26T16:18:38.528Z,28.30
2017-11-26T16:21:08.597Z,28.93
2017-11-26T16:23:38.044Z,27.80
2017-11-26T16:26:07.355Z,30.57
2017-11-26T16:28:36.660Z,35.70
2017-11-26T16:31:06.001Z,31.00
2017-11-26T16:33:35.306Z,30.60
2017-11-26T16:36:05.988Z,29.20
2017-11-26T16:38:36.008Z,27.00
2017-11-26T16:41:05.370Z,28.70
2017-11-26T16:43:35.535Z,32.00
2017-11-26T16:46:05.658Z,33.97
2017-11-26T16:48:34.845Z,33.93
2017-11-26T16:51:04.098Z,32.70
2017-11-26T16:53:33.386Z,38.87
2017-11-26T16:56:03.514Z,41.97
2017-11-26T16:58:32.775Z,33.27
2017-11-26T17:01:02.073Z,31.87
2017-11-26T17:03:33.981Z,33.37
2017-11-26T17:06:03.356Z,31.00
2017-11-26T17:08:32.372Z,31.00
2017-11-26T17:11:01.584Z,33.23
2017-11-26T17:13:30.767Z,33.00
2017-11-26T17:15:59.865Z,31.17
2017-11-26T17:18:29.122Z,40.70
2017-11-26T17:20:58.219Z,34.57
2017-11-26T17:23:28.610Z,31.30
2017-11-26T17:28:32.894Z,34.47
2017-11-26T17:31:02.176Z,32.33
2017-11-26T17:33:31.991Z,34.63
2017-11-26T17:36:01.451Z,33.73
2017-11-26T17:38:30.590Z,32.70
2017-11-26T17:41:00.405Z,32.50
2017-11-26T17:43:29.831Z,34.00
2017-11-26T17:46:02.081Z,32.67
2017-11-26T17:48:31.278Z,37.10
2017-11-26T17:51:01.444Z,35.50
2017-11-26T17:53:31.784Z,37.57
2017-11-26T17:56:01.025Z,37.40
2017-11-26T17:58:30.124Z,35.30
2017-11-26T18:01:00.181Z,35.60
2017-11-26T18:03:30.240Z,35.33
2017-11-26T18:05:59.351Z,36.77
2017-11-26T18:08:28.876Z,33.23
2017-11-26T18:10:58.916Z,32.70
2017-11-26T18:13:29.460Z,31.90
2017-11-26T18:15:58.675Z,36.70
2017-11-26T18:18:28.378Z,33.20
2017-11-26T18:20:58.843Z,32.37
2017-11-26T18:23:28.146Z,31.40
2017-11-26T18:25:57.480Z,30.03
2017-11-26T18:28:27.498Z,32.37
2017-11-26T18:30:57.440Z,32.27
2017-11-26T18:33:26.846Z,31.10
2017-11-26T18:35:56.130Z,40.77
2017-11-26T18:38:26.232Z,35.40
2017-11-26T18:40:55.881Z,33.93
2017-11-26T18:43:26.049Z,33.17
2017-11-26T18:45:55.270Z,32.83
2017-11-26T18:48:24.515Z,34.77
2017-11-26T18:50:56.246Z,32.37
2017-11-26T18:53:25.688Z,29.93
2017-11-26T18:55:55.219Z,33.10
2017-11-26T18:58:27.588Z,34.00
2017-11-26T19:00:58.226Z,31.17
2017-11-26T19:03:28.533Z,31.37
2017-11-26T19:05:58.535Z,34.47
2017-11-26T19:08:28.305Z,31.83
2017-11-26T19:10:57.634Z,33.00
2017-11-26T19:13:27.112Z,31.00
2017-11-26T19:15:56.200Z,30.10
2017-11-26T19:18:27.212Z,29.90
2017-11-26T19:20:57.005Z,31.80
2017-11-26T19:23:26.107Z,33.13
2017-11-26T19:25:55.278Z,34.73
2017-11-26T19:28:24.350Z,33.07
2017-11-26T19:30:54.657Z,31.10
2017-11-26T19:33:25.572Z,30.43
2017-11-26T19:35:55.405Z,33.37
2017-11-26T19:38:24.985Z,33.43
2017-11-26T19:40:54.340Z,34.80
2017-11-26T19:43:23.651Z,35.20
2017-11-26T19:45:53.649Z,36.93
2017-11-26T19:48:23.785Z,33.33
2017-11-26T19:50:54.002Z,36.13
2017-11-26T19:53:23.412Z,34.60
2017-11-26T19:55:52.846Z,36.67
2017-11-26T19:58:22.044Z,38.47
2017-11-26T20:00:52.991Z,37.30
2017-11-26T20:03:22.133Z,39.87
2017-11-26T20:05:51.326Z,38.00
2017-11-26T20:08:21.548Z,38.63
2017-11-26T20:10:51.935Z,34.87
2017-11-26T20:13:21.345Z,37.57
2017-11-26T20:15:51.420Z,39.90
2017-11-26T20:18:23.628Z,37.37
2017-11-26T20:20:52.864Z,37.50
2017-11-26T20:23:21.925Z,39.30
2017-11-26T20:25:52.839Z,39.73
2017-11-26T20:28:22.725Z,37.97
2017-11-26T20:30:52.541Z,35.47
2017-11-26T20:33:26.510Z,38.17
2017-11-26T20:35:56.263Z,35.70
2017-11-26T20:38:26.381Z,37.50
2017-11-26T20:43:30.948Z,31.50
2017-11-26T20:46:00.330Z,30.57
2017-11-26T20:48:29.972Z,31.20
2017-11-26T20:51:00.085Z,30.23
2017-11-26T20:53:29.167Z,28.50
2017-11-26T20:58:35.049Z,28.60
2017-11-26T21:01:04.111Z,29.07
2017-11-26T21:03:34.027Z,28.83
2017-11-26T21:06:03.959Z,31.97
2017-11-26T21:08:33.196Z,31.47
2017-11-26T21:11:02.290Z,33.70
2017-11-26T21:16:05.504Z,34.40
2017-11-26T21:18:34.801Z,31.43
2017-11-26T21:21:05.646Z,32.83
2017-11-26T21:23:35.606Z,31.57
2017-11-26T21:26:06.634Z,31.20
2017-11-26T21:28:35.885Z,32.93
2017-11-26T21:33:43.247Z,29.77
2017-11-26T21:36:12.438Z,34.40
2017-11-26T21:38:41.713Z,33.43
2017-11-26T21:41:12.303Z,32.87
2017-11-26T21:43:41.552Z,33.70
2017-11-26T21:46:11.672Z,33.97
2017-11-26T21:48:42.151Z,34.90
2017-11-26T21:51:11.294Z,31.70
2017-11-26T21:53:40.482Z,33.20
2017-11-26T21:56:10.454Z,33.30
2017-11-26T21:58:39.374Z,32.37
2017-11-26T22:01:08.400Z,32.80
2017-11-26T22:03:38.572Z,34.17
2017-11-26T22:06:07.685Z,31.97
2017-11-26T22:08:37.751Z,33.03
2017-11-26T22:11:07.840Z,33.50
2017-11-26T22:13:36.935Z,35.83
2017-11-26T22:16:07.764Z,34.43
2017-11-26T22:18:36.923Z,33.90
2017-11-26T22:21:07.167Z,34.40
2017-11-26T22:23:36.956Z,35.30
2017-11-26T22:26:06.043Z,37.23
2017-11-26T22:28:37.239Z,35.23
2017-11-26T22:31:07.114Z,35.30
2017-11-26T22:33:36.248Z,32.50
2017-11-26T22:36:05.551Z,33.60
2017-11-26T22:38:34.647Z,33.63
2017-11-26T22:41:03.691Z,33.40
2017-11-26T22:43:33.878Z,36.17
2017-11-26T22:46:03.348Z,36.80
2017-11-26T22:48:34.212Z,35.47
2017-11-26T22:51:04.151Z,35.60
2017-11-26T22:53:33.215Z,35.90
2017-11-26T22:56:04.776Z,36.60
2017-11-26T22:58:34.165Z,35.90
2017-11-26T23:01:03.376Z,35.93
2017-11-26T23:03:33.466Z,33.03
2017-11-26T23:06:02.545Z,37.83
2017-11-26T23:08:31.595Z,36.77
2017-11-26T23:11:01.554Z,56.13
2017-11-26T23:13:31.404Z,87.33
2017-11-26T23:16:01.211Z,84.70
2017-11-26T23:18:30.948Z,50.57
2017-11-26T23:21:01.784Z,48.90
2017-11-26T23:23:31.186Z,42.17
2017-11-26T23:26:00.175Z,47.57
2017-11-26T23:28:31.195Z,53.77
2017-11-26T23:31:00.312Z,42.37
2017-11-26T23:33:29.303Z,42.57
2017-11-26T23:36:00.184Z,39.47
2017-11-26T23:38:29.287Z,47.70
2017-11-26T23:40:58.997Z,41.30
2017-11-26T23:46:02.296Z,41.63
2017-11-26T23:48:31.356Z,38.87
2017-11-26T23:51:03.081Z,36.47
2017-11-26T23:53:32.106Z,34.83
2017-11-26T23:56:01.096Z,33.73
2017-11-26T23:58:32.122Z,32.00
